Lausanne, Switzerland
Current Conditions -  °F | °C
As of 7:50 PM on Sunday 21 Dec 2014 (Local Time) from LSMP Reporting Station
Clear Clear  
Wind Chill: 30°   Ceiling: Unl
Heat Index: 34°   Visibility: 6mi
Dew Point: 30°   Wind: 5mph
Humidity: 87%   Direction: 200°SSW
Pressure: 30.53"   Gusts: NA
Location:  46.52°N, 6.62°E
Report Text: LSMP 211850Z AUTO 20004KT 9999NDV NCD 01/M01 Q1034 RMK BLU
Loading
Personal Weather Stations






























Interactive Weather Map New forecast layout! Learn more

10-Day Weather Forecast

Advertisements
Track Severe Weather on mobile